createdAt,value
2023-05-10T00:00:19.981Z,25.00
2023-05-10T00:01:19.998Z,25.00
2023-05-10T00:02:19.985Z,25.00
2023-05-10T00:03:20.007Z,0.00
2023-05-10T00:04:19.998Z,0.00
2023-05-10T00:05:19.905Z,0.00
2023-05-10T00:06:19.883Z,0.00
2023-05-10T00:07:19.870Z,0.00
2023-05-10T00:08:19.851Z,4.93
2023-05-10T00:09:19.833Z,17.68
2023-05-10T00:10:19.829Z,26.03
2023-05-10T00:11:22.179Z,25.15
2023-05-10T00:12:19.809Z,20.28
2023-05-10T00:13:19.872Z,7.96
2023-05-10T00:14:19.779Z,0.00
2023-05-10T00:15:19.761Z,0.00
2023-05-10T00:16:19.761Z,0.00
2023-05-10T00:17:19.735Z,8.55
2023-05-10T00:18:19.701Z,25.55
2023-05-10T00:19:19.694Z,25.00
2023-05-10T00:20:19.803Z,25.00
2023-05-10T00:21:19.680Z,25.11
2023-05-10T00:22:19.640Z,25.53
2023-05-10T00:23:19.632Z,25.00
2023-05-10T00:24:19.619Z,25.71
2023-05-10T00:25:19.603Z,26.80
2023-05-10T00:26:19.593Z,25.89
2023-05-10T00:27:19.564Z,25.88
2023-05-10T00:28:19.552Z,26.23
2023-05-10T00:29:19.551Z,25.46
2023-05-10T00:30:19.527Z,26.78
2023-05-10T00:31:19.499Z,26.05
2023-05-10T00:32:19.549Z,27.50
2023-05-10T00:33:19.472Z,25.20
2023-05-10T00:34:19.453Z,26.37
2023-05-10T00:35:19.448Z,26.22
2023-05-10T00:36:19.438Z,26.37
2023-05-10T00:37:19.421Z,26.22
2023-05-10T00:38:19.406Z,26.55
2023-05-10T00:39:19.384Z,26.82
2023-05-10T00:40:19.449Z,25.88
2023-05-10T00:41:19.344Z,25.30
2023-05-10T00:42:19.320Z,27.35
2023-05-10T00:43:19.322Z,26.93
2023-05-10T00:44:19.301Z,25.00
2023-05-10T00:45:19.326Z,25.64
2023-05-10T00:46:19.307Z,25.78
2023-05-10T00:47:19.287Z,25.00
2023-05-10T00:48:19.246Z,26.97
2023-05-10T00:49:19.214Z,26.87
2023-05-10T00:50:19.231Z,25.86
2023-05-10T00:51:19.183Z,27.45
2023-05-10T00:52:19.169Z,27.27
2023-05-10T00:53:19.180Z,27.35
2023-05-10T00:54:19.143Z,26.58
2023-05-10T00:55:19.122Z,26.83
2023-05-10T00:56:19.107Z,26.39
2023-05-10T00:57:19.082Z,25.86
2023-05-10T00:58:19.083Z,25.77
2023-05-10T00:59:19.048Z,27.08
2023-05-10T01:00:19.067Z,26.76
2023-05-10T01:01:19.108Z,25.76
2023-05-10T01:02:19.077Z,26.39
2023-05-10T01:03:19.174Z,26.36
2023-05-10T01:04:18.972Z,26.03
2023-05-10T01:05:19.136Z,26.01
2023-05-10T01:06:18.983Z,26.99
2023-05-10T01:07:18.922Z,26.64
2023-05-10T01:08:18.955Z,25.00
2023-05-10T01:09:18.882Z,27.06
2023-05-10T01:10:19.016Z,26.06
2023-05-10T01:11:18.854Z,25.27
2023-05-10T01:12:18.868Z,27.72
2023-05-10T01:13:18.830Z,27.57
2023-05-10T01:14:18.817Z,28.07
2023-05-10T01:15:18.791Z,28.93
2023-05-10T01:16:18.819Z,28.40
2023-05-10T01:17:18.811Z,28.71
2023-05-10T01:18:18.750Z,29.73
2023-05-10T01:19:18.756Z,29.12
2023-05-10T01:20:19.155Z,29.23
2023-05-10T01:21:18.703Z,29.99
2023-05-10T01:22:18.704Z,28.67
2023-05-10T01:23:18.698Z,30.42
2023-05-10T01:24:18.675Z,30.47
2023-05-10T01:25:18.667Z,30.52
2023-05-10T01:26:18.640Z,28.98
2023-05-10T01:27:18.623Z,29.34
2023-05-10T01:28:18.648Z,29.03
2023-05-10T01:29:18.639Z,30.57
2023-05-10T01:30:18.643Z,29.25
2023-05-10T01:31:18.708Z,30.94
2023-05-10T01:32:18.641Z,29.39
2023-05-10T01:33:18.694Z,30.22
2023-05-10T01:34:18.629Z,30.53
2023-05-10T01:35:18.664Z,29.95
2023-05-10T01:36:18.643Z,29.98
2023-05-10T01:37:18.641Z,30.82
2023-05-10T01:38:18.658Z,29.57
2023-05-10T01:39:18.654Z,31.35
2023-05-10T01:40:18.696Z,30.97
2023-05-10T01:41:18.646Z,30.79
2023-05-10T01:42:18.648Z,31.20
2023-05-10T01:43:18.646Z,30.11
2023-05-10T01:44:18.668Z,30.89
2023-05-10T01:45:18.650Z,30.18
2023-05-10T01:46:18.689Z,29.62
2023-05-10T01:47:18.662Z,29.72
2023-05-10T01:48:18.674Z,30.65
2023-05-10T01:49:18.715Z,30.67
2023-05-10T01:50:19.049Z,29.60
2023-05-10T01:51:18.678Z,30.96
2023-05-10T01:52:18.684Z,30.45
2023-05-10T01:53:18.684Z,30.62
2023-05-10T01:54:18.716Z,30.52
2023-05-10T01:55:18.716Z,29.68
2023-05-10T01:56:18.692Z,30.18
2023-05-10T01:57:18.704Z,30.57
2023-05-10T01:58:18.713Z,31.17
2023-05-10T01:59:18.717Z,31.55
2023-05-10T02:00:18.831Z,30.09
2023-05-10T02:01:18.747Z,29.57
2023-05-10T02:02:18.716Z,30.63
2023-05-10T02:03:18.763Z,29.36
2023-05-10T02:04:18.724Z,28.98
2023-05-10T02:05:18.776Z,30.56
2023-05-10T02:06:18.733Z,30.24
2023-05-10T02:07:18.775Z,29.28
2023-05-10T02:08:18.749Z,28.54
2023-05-10T02:09:18.751Z,28.50
2023-05-10T02:10:18.963Z,30.67
2023-05-10T02:11:18.768Z,29.72
2023-05-10T02:12:18.780Z,30.61
2023-05-10T02:13:18.835Z,29.19
2023-05-10T02:14:18.796Z,30.17
2023-05-10T02:15:18.802Z,30.12
2023-05-10T02:16:18.870Z,30.65
2023-05-10T02:17:18.822Z,30.92
2023-05-10T02:18:18.845Z,29.47
2023-05-10T02:19:18.856Z,29.12
2023-05-10T02:20:19.132Z,30.33
2023-05-10T02:21:18.889Z,30.29
2023-05-10T02:22:18.873Z,29.33
2023-05-10T02:23:18.887Z,30.53
2023-05-10T02:24:18.935Z,30.10
2023-05-10T02:25:18.902Z,29.48
2023-05-10T02:26:18.909Z,30.01
2023-05-10T02:27:18.904Z,29.10
2023-05-10T02:28:18.917Z,29.23
2023-05-10T02:29:18.925Z,28.71
2023-05-10T02:30:18.942Z,29.68
2023-05-10T02:31:18.980Z,29.91
2023-05-10T02:32:18.989Z,30.38
2023-05-10T02:33:18.963Z,26.98
2023-05-10T02:34:18.977Z,29.71
2023-05-10T02:35:18.985Z,29.39
2023-05-10T02:36:18.995Z,29.00
2023-05-10T02:37:19.029Z,29.51
2023-05-10T02:38:19.015Z,29.76
2023-05-10T02:39:19.129Z,29.78
2023-05-10T02:40:19.306Z,29.12
2023-05-10T02:41:19.096Z,29.16
2023-05-10T02:42:19.129Z,29.55
2023-05-10T02:43:19.190Z,30.40
2023-05-10T02:44:19.059Z,28.52
2023-05-10T02:45:19.077Z,28.59
2023-05-10T02:46:19.107Z,28.20
2023-05-10T02:47:19.157Z,30.31
2023-05-10T02:48:19.089Z,28.40
2023-05-10T02:49:19.118Z,28.14
2023-05-10T02:50:19.237Z,29.38
2023-05-10T02:51:19.257Z,28.02
2023-05-10T02:52:19.132Z,29.55
2023-05-10T02:53:19.167Z,29.31
2023-05-10T02:54:19.154Z,28.40
2023-05-10T02:55:19.149Z,30.21
2023-05-10T02:56:19.153Z,29.81
2023-05-10T02:57:19.179Z,28.72
2023-05-10T02:58:19.175Z,29.02
2023-05-10T02:59:19.174Z,28.74
2023-05-10T03:00:19.183Z,29.35
2023-05-10T03:01:19.253Z,28.39
2023-05-10T03:02:19.219Z,28.55
2023-05-10T03:03:19.222Z,28.94
2023-05-10T03:04:19.299Z,28.35
2023-05-10T03:05:19.251Z,28.40
2023-05-10T03:06:19.260Z,27.51
2023-05-10T03:07:19.264Z,27.32
2023-05-10T03:08:19.264Z,27.60
2023-05-10T03:09:19.304Z,27.15
2023-05-10T03:10:19.541Z,28.03
2023-05-10T03:11:19.315Z,28.42
2023-05-10T03:12:19.319Z,28.07
2023-05-10T03:13:19.366Z,27.70
2023-05-10T03:14:19.334Z,28.18
2023-05-10T03:15:19.358Z,27.69
2023-05-10T03:16:19.429Z,26.61
2023-05-10T03:17:19.374Z,26.20
2023-05-10T03:18:19.378Z,27.82
2023-05-10T03:19:19.429Z,27.63
2023-05-10T03:20:19.402Z,27.91
2023-05-10T03:21:19.788Z,27.20
2023-05-10T03:22:19.801Z,26.60
2023-05-10T03:23:19.830Z,27.67
2023-05-10T03:24:19.835Z,27.88
2023-05-10T03:25:19.878Z,27.95
2023-05-10T03:26:19.856Z,26.69
2023-05-10T03:27:19.846Z,28.15
2023-05-10T03:28:19.832Z,27.33
2023-05-10T03:29:19.839Z,27.18
2023-05-10T03:30:19.850Z,27.25
2023-05-10T03:31:19.866Z,26.20
2023-05-10T03:32:19.840Z,26.87
2023-05-10T03:33:19.841Z,26.54
2023-05-10T03:34:19.847Z,27.20
2023-05-10T03:35:19.851Z,27.45
2023-05-10T03:36:19.839Z,27.80
2023-05-10T03:37:19.846Z,26.71
2023-05-10T03:38:19.841Z,26.99
2023-05-10T03:39:19.848Z,28.25
2023-05-10T03:40:20.016Z,26.97
2023-05-10T03:41:19.876Z,26.81
2023-05-10T03:42:19.854Z,27.06
2023-05-10T03:43:19.849Z,27.54
2023-05-10T03:44:19.853Z,27.06
2023-05-10T03:45:19.854Z,27.12
2023-05-10T03:46:19.853Z,27.54
2023-05-10T03:47:19.851Z,26.22
2023-05-10T03:48:19.743Z,25.97
2023-05-10T03:49:19.751Z,26.70
2023-05-10T03:50:20.055Z,26.18
2023-05-10T03:51:19.794Z,28.38
2023-05-10T03:52:19.787Z,27.20
2023-05-10T03:53:19.793Z,26.07
2023-05-10T03:54:19.811Z,27.42
2023-05-10T03:55:19.807Z,27.97
2023-05-10T03:56:19.821Z,26.92
2023-05-10T03:57:20.021Z,26.84
2023-05-10T03:58:19.855Z,27.22
2023-05-10T03:59:19.871Z,26.41
2023-05-10T04:00:20.026Z,25.56
2023-05-10T04:01:19.934Z,25.80
2023-05-10T04:02:19.970Z,27.79
2023-05-10T04:03:19.977Z,26.62
2023-05-10T04:04:20.118Z,27.02
2023-05-10T04:05:19.994Z,28.46
2023-05-10T04:06:20.035Z,27.64
2023-05-10T04:07:20.011Z,27.72
2023-05-10T04:08:20.006Z,26.62
2023-05-10T04:09:20.032Z,28.38
2023-05-10T04:10:20.153Z,27.06
2023-05-10T04:11:20.064Z,27.21
2023-05-10T04:12:20.070Z,25.89
2023-05-10T04:13:20.141Z,27.42
2023-05-10T04:14:20.093Z,25.94
2023-05-10T04:15:20.098Z,28.40
2023-05-10T04:16:20.154Z,28.33
2023-05-10T04:17:20.177Z,26.54
2023-05-10T04:18:20.144Z,26.62
2023-05-10T04:19:20.160Z,27.58
2023-05-10T04:20:20.182Z,28.09
2023-05-10T04:21:20.189Z,26.61
2023-05-10T04:22:20.186Z,26.70
2023-05-10T04:23:20.213Z,26.72
2023-05-10T04:24:20.213Z,27.57
2023-05-10T04:25:20.235Z,27.10
2023-05-10T04:26:20.248Z,26.73
2023-05-10T04:27:20.255Z,28.65
2023-05-10T04:28:20.270Z,27.93
2023-05-10T04:29:20.314Z,26.75
2023-05-10T04:30:20.302Z,26.63
2023-05-10T04:31:20.460Z,26.53
2023-05-10T04:32:20.332Z,28.10
2023-05-10T04:33:20.340Z,28.36
2023-05-10T04:34:20.364Z,26.51
2023-05-10T04:35:20.382Z,26.76
2023-05-10T04:36:20.405Z,27.58
2023-05-10T04:37:20.405Z,27.67
2023-05-10T04:38:20.427Z,26.80
2023-05-10T04:39:20.466Z,27.64
2023-05-10T04:40:20.461Z,28.14
2023-05-10T04:41:20.478Z,27.92
2023-05-10T04:42:20.516Z,26.61
2023-05-10T04:43:20.540Z,26.98
2023-05-10T04:44:20.560Z,26.83
2023-05-10T04:45:20.603Z,26.44
2023-05-10T04:46:20.654Z,28.43
2023-05-10T04:47:20.630Z,27.70
2023-05-10T04:48:20.609Z,27.78
2023-05-10T04:49:20.629Z,26.62
2023-05-10T04:50:20.641Z,27.75
2023-05-10T04:51:20.693Z,25.01
2023-05-10T04:52:20.690Z,28.06
2023-05-10T04:53:20.719Z,27.26
2023-05-10T04:54:20.725Z,26.77
2023-05-10T04:55:20.758Z,27.58
2023-05-10T04:56:20.787Z,26.83
2023-05-10T04:57:20.811Z,26.96
2023-05-10T04:58:20.807Z,26.43
2023-05-10T04:59:20.830Z,27.30
2023-05-10T05:00:20.867Z,26.27
2023-05-10T05:01:20.931Z,28.10
2023-05-10T05:02:20.913Z,25.98
2023-05-10T05:03:20.987Z,28.81
2023-05-10T05:04:20.925Z,27.50
2023-05-10T05:05:20.932Z,28.51
2023-05-10T05:06:20.950Z,26.86
2023-05-10T05:07:20.969Z,27.34
2023-05-10T05:08:20.995Z,27.72
2023-05-10T05:09:21.017Z,28.86
2023-05-10T05:10:21.040Z,28.43
2023-05-10T05:11:21.039Z,28.27
2023-05-10T05:12:21.053Z,28.75
2023-05-10T05:13:21.143Z,27.20
2023-05-10T05:14:21.099Z,28.76
2023-05-10T05:15:21.109Z,27.32
2023-05-10T05:16:21.151Z,27.14
2023-05-10T05:17:21.172Z,27.80
2023-05-10T05:18:21.175Z,27.44
2023-05-10T05:19:21.332Z,28.20
2023-05-10T05:20:21.206Z,28.05
2023-05-10T05:21:21.409Z,25.61
2023-05-10T05:22:21.242Z,26.53
2023-05-10T05:23:21.263Z,26.69
2023-05-10T05:24:21.271Z,26.96
2023-05-10T05:25:21.304Z,27.65
2023-05-10T05:26:21.330Z,28.89
2023-05-10T05:27:21.334Z,28.56
2023-05-10T05:28:21.357Z,29.25
2023-05-10T05:29:21.375Z,28.67
2023-05-10T05:30:21.401Z,26.75
2023-05-10T05:31:21.440Z,27.65
2023-05-10T05:32:21.431Z,28.09
2023-05-10T05:33:21.478Z,28.39
2023-05-10T05:34:21.501Z,27.70
2023-05-10T05:35:21.496Z,28.26
2023-05-10T05:36:21.502Z,27.95
2023-05-10T05:37:21.525Z,27.09
2023-05-10T05:38:21.551Z,28.64
2023-05-10T05:39:21.570Z,28.18
2023-05-10T05:40:21.843Z,28.50
2023-05-10T05:41:21.602Z,28.95
2023-05-10T05:42:21.622Z,27.79
2023-05-10T05:43:21.646Z,28.70
2023-05-10T05:44:21.659Z,28.94
2023-05-10T05:45:21.849Z,27.01
2023-05-10T05:46:21.747Z,28.82
2023-05-10T05:47:21.727Z,28.38
2023-05-10T05:48:21.744Z,28.31
2023-05-10T05:49:29.270Z,27.25
2023-05-10T05:50:21.840Z,27.64
2023-05-10T05:51:22.349Z,28.60
2023-05-10T05:52:21.740Z,29.54
2023-05-10T05:53:21.767Z,30.32
2023-05-10T05:54:21.843Z,30.22
2023-05-10T05:55:21.695Z,32.39
2023-05-10T05:56:21.678Z,29.78
2023-05-10T05:57:21.696Z,30.65
2023-05-10T05:58:21.869Z,28.28
2023-05-10T05:59:21.634Z,28.50
2023-05-10T06:00:21.848Z,30.13
2023-05-10T06:01:21.643Z,28.33
2023-05-10T06:02:21.741Z,28.43
2023-05-10T06:03:21.700Z,29.61
2023-05-10T06:04:21.903Z,28.66
2023-05-10T06:05:22.215Z,29.65
2023-05-10T06:06:21.567Z,27.79
2023-05-10T06:07:22.243Z,28.42
2023-05-10T06:08:21.555Z,28.57
2023-05-10T06:09:24.753Z,30.10
2023-05-10T06:10:21.520Z,30.30
2023-05-10T06:11:21.501Z,30.13
2023-05-10T06:12:22.168Z,29.29
2023-05-10T06:13:21.572Z,30.18
2023-05-10T06:14:21.859Z,31.67
2023-05-10T06:15:21.853Z,29.66
2023-05-10T06:16:21.464Z,30.21
2023-05-10T06:17:21.423Z,29.40
2023-05-10T06:18:21.435Z,29.92
2023-05-10T06:19:21.421Z,28.69
2023-05-10T06:20:21.870Z,30.37
2023-05-10T06:21:21.449Z,29.19
2023-05-10T06:22:21.358Z,28.95
2023-05-10T06:23:21.336Z,29.32
2023-05-10T06:24:21.365Z,28.40
2023-05-10T06:25:21.319Z,29.63
2023-05-10T06:26:21.455Z,29.29
2023-05-10T06:27:21.329Z,29.52
2023-05-10T06:28:21.279Z,29.46
2023-05-10T06:29:21.361Z,29.76
2023-05-10T06:30:21.334Z,29.56
2023-05-10T06:31:21.275Z,31.49
2023-05-10T06:32:36.877Z,34.05
2023-05-10T06:33:21.186Z,34.31
2023-05-10T06:34:21.367Z,34.95
2023-05-10T06:35:21.159Z,35.41
2023-05-10T06:36:21.131Z,35.80
2023-05-10T06:37:21.181Z,36.00
2023-05-10T06:38:21.103Z,35.37
2023-05-10T06:39:21.370Z,35.71
2023-05-10T06:40:21.069Z,36.70
2023-05-10T06:41:22.560Z,36.28
2023-05-10T06:42:21.023Z,36.62
2023-05-10T06:43:21.021Z,37.14
2023-05-10T06:44:20.986Z,37.94
2023-05-10T06:45:21.414Z,36.96
2023-05-10T06:46:20.987Z,42.69
2023-05-10T06:47:20.933Z,69.73
2023-05-10T06:48:20.949Z,53.96
2023-05-10T06:49:21.365Z,47.89
2023-05-10T06:50:21.381Z,46.67
2023-05-10T06:51:20.868Z,45.84
2023-05-10T06:52:20.844Z,48.31
2023-05-10T06:53:20.856Z,48.85
2023-05-10T06:54:28.281Z,48.04
2023-05-10T06:55:24.083Z,48.45
2023-05-10T06:56:20.771Z,48.68
2023-05-10T06:57:31.358Z,49.20
2023-05-10T06:58:20.759Z,48.66
2023-05-10T06:59:20.740Z,49.97
2023-05-10T07:00:24.014Z,52.01
2023-05-10T07:01:20.801Z,48.67
2023-05-10T07:02:20.784Z,50.13
2023-05-10T07:03:20.701Z,52.54
2023-05-10T07:04:20.643Z,54.64
2023-05-10T07:05:21.235Z,61.53
2023-05-10T07:06:32.247Z,61.36
2023-05-10T07:07:20.565Z,61.80
2023-05-10T07:08:20.558Z,62.67
2023-05-10T07:09:20.570Z,63.79
2023-05-10T07:10:20.885Z,63.84
2023-05-10T07:11:20.488Z,66.68
2023-05-10T07:12:20.515Z,66.90
2023-05-10T07:13:20.602Z,66.26
2023-05-10T07:14:20.879Z,65.52
2023-05-10T07:15:20.411Z,67.20
2023-05-10T07:16:21.001Z,69.80
2023-05-10T07:17:20.440Z,69.63
2023-05-10T07:18:20.372Z,68.90
2023-05-10T07:19:21.339Z,69.21
2023-05-10T07:20:20.319Z,70.42
2023-05-10T07:21:20.394Z,70.90
2023-05-10T07:22:20.295Z,71.95
2023-05-10T07:23:20.264Z,70.90
2023-05-10T07:24:21.230Z,72.28
2023-05-10T07:25:21.077Z,72.14
2023-05-10T07:26:20.199Z,74.67
2023-05-10T07:27:20.179Z,75.40
2023-05-10T07:28:20.164Z,76.33
2023-05-10T07:29:20.400Z,77.15
2023-05-10T07:30:20.202Z,76.90
2023-05-10T07:31:20.120Z,96.08
2023-05-10T07:32:20.442Z,90.03
2023-05-10T07:33:20.125Z,85.94
2023-05-10T07:34:20.106Z,85.83
2023-05-10T07:35:20.396Z,88.11
2023-05-10T07:36:20.097Z,86.90
2023-05-10T07:37:20.025Z,92.22
2023-05-10T07:38:20.008Z,96.44
2023-05-10T07:39:26.453Z,98.87
2023-05-10T07:40:20.412Z,99.34
2023-05-10T07:41:20.006Z,99.46
2023-05-10T07:42:19.931Z,101.12
2023-05-10T07:43:20.055Z,104.93
2023-05-10T07:44:22.426Z,118.73
2023-05-10T07:45:19.936Z,99.83
2023-05-10T07:46:19.948Z,103.21
2023-05-10T07:47:20.034Z,111.31
2023-05-10T07:48:19.813Z,123.99
2023-05-10T07:49:20.772Z,145.51
2023-05-10T07:50:19.921Z,144.62
2023-05-10T07:51:19.800Z,148.38
2023-05-10T07:52:21.316Z,156.94
2023-05-10T07:53:19.695Z,157.32
2023-05-10T07:54:19.659Z,160.29
2023-05-10T07:55:19.630Z,163.45
2023-05-10T07:56:20.651Z,172.91
2023-05-10T07:57:19.598Z,190.14
2023-05-10T07:58:20.049Z,191.08
2023-05-10T07:59:19.543Z,194.13
2023-05-10T08:00:19.524Z,195.49
2023-05-10T08:01:19.506Z,196.81
2023-05-10T08:02:19.500Z,201.95
2023-05-10T08:03:19.641Z,200.92
2023-05-10T08:04:19.516Z,210.40
2023-05-10T08:05:20.020Z,215.12
2023-05-10T08:06:19.555Z,211.35
2023-05-10T08:07:19.898Z,214.23
2023-05-10T08:08:19.580Z,224.10
2023-05-10T08:09:19.571Z,228.94
2023-05-10T08:10:19.602Z,231.87
2023-05-10T08:11:19.626Z,232.11
2023-05-10T08:12:19.995Z,243.33
2023-05-10T08:13:19.729Z,245.62
2023-05-10T08:14:20.352Z,248.52
2023-05-10T08:15:19.858Z,241.27
2023-05-10T08:16:20.060Z,248.77
2023-05-10T08:17:20.109Z,246.12
2023-05-10T08:18:22.057Z,249.78
2023-05-10T08:19:19.718Z,248.20
2023-05-10T08:20:19.920Z,242.99
2023-05-10T08:21:19.965Z,247.47
2023-05-10T08:22:19.678Z,247.55
2023-05-10T08:23:19.671Z,249.11
2023-05-10T08:24:19.590Z,250.00
2023-05-10T08:25:20.132Z,248.63
2023-05-10T08:26:19.538Z,248.27
2023-05-10T08:27:19.516Z,249.35
2023-05-10T08:28:19.493Z,250.00
2023-05-10T08:29:19.469Z,243.47
2023-05-10T08:30:19.919Z,249.51
2023-05-10T08:31:19.473Z,249.19
2023-05-10T08:32:19.350Z,248.06
2023-05-10T08:33:19.897Z,248.73
2023-05-10T08:34:19.316Z,245.43
2023-05-10T08:35:19.410Z,246.65
2023-05-10T08:36:19.235Z,249.44
2023-05-10T08:37:19.212Z,248.84
2023-05-10T08:38:19.189Z,250.00
2023-05-10T08:39:29.322Z,247.82
2023-05-10T08:40:19.432Z,248.04
2023-05-10T08:41:19.443Z,248.27
2023-05-10T08:42:51.234Z,245.61
2023-05-10T08:43:20.058Z,248.16
2023-05-10T08:44:19.068Z,248.30
2023-05-10T08:45:19.719Z,248.70
2023-05-10T08:46:19.096Z,250.46
2023-05-10T08:47:18.932Z,247.93
2023-05-10T08:48:18.898Z,247.12
2023-05-10T08:49:18.847Z,242.05
2023-05-10T08:50:18.908Z,236.46
2023-05-10T08:51:18.810Z,231.29
2023-05-10T08:52:21.938Z,236.53
2023-05-10T08:53:18.714Z,236.71
2023-05-10T08:54:18.709Z,237.44
2023-05-10T08:55:19.071Z,238.30
2023-05-10T08:56:18.651Z,239.65
2023-05-10T08:57:18.601Z,243.80
2023-05-10T08:58:22.122Z,240.80
2023-05-10T08:59:18.536Z,241.12
2023-05-10T09:00:18.511Z,240.99
2023-05-10T09:01:18.566Z,237.49
2023-05-10T09:02:18.875Z,233.92
2023-05-10T09:03:18.428Z,236.97
2023-05-10T09:04:18.637Z,236.46
2023-05-10T09:05:18.703Z,233.88
2023-05-10T09:06:18.360Z,231.12
2023-05-10T09:07:18.334Z,232.15
2023-05-10T09:08:18.306Z,231.10
2023-05-10T09:09:18.274Z,233.53
2023-05-10T09:10:18.428Z,232.16
2023-05-10T09:11:18.243Z,229.75
2023-05-10T09:12:18.197Z,233.26
2023-05-10T09:13:18.209Z,230.11
2023-05-10T09:14:18.163Z,228.04
2023-05-10T09:15:18.724Z,228.92
2023-05-10T09:16:21.966Z,224.73
2023-05-10T09:17:18.187Z,225.00
2023-05-10T09:18:18.125Z,225.20
2023-05-10T09:19:18.010Z,226.32
2023-05-10T09:20:17.990Z,224.88
2023-05-10T09:21:18.012Z,223.94
2023-05-10T09:22:17.959Z,224.18
2023-05-10T09:23:17.992Z,224.59
2023-05-10T09:24:18.048Z,224.79
2023-05-10T09:25:18.763Z,221.01
2023-05-10T09:26:18.030Z,223.89
2023-05-10T09:27:18.049Z,222.69
2023-05-10T09:28:18.056Z,221.07
2023-05-10T09:29:18.448Z,221.47
2023-05-10T09:30:18.151Z,217.05
2023-05-10T09:31:18.171Z,218.59
2023-05-10T09:32:18.120Z,215.60
2023-05-10T09:33:18.161Z,217.02
2023-05-10T09:34:18.435Z,216.91
2023-05-10T09:35:18.522Z,217.81
2023-05-10T09:36:18.447Z,216.07
2023-05-10T09:37:18.228Z,216.08
2023-05-10T09:38:18.428Z,214.45
2023-05-10T09:39:18.270Z,216.99
2023-05-10T09:40:18.336Z,214.67
2023-05-10T09:41:18.301Z,214.21
2023-05-10T09:42:18.440Z,217.28
2023-05-10T09:43:18.430Z,215.95
2023-05-10T09:44:18.356Z,217.34
2023-05-10T09:45:18.625Z,214.94
2023-05-10T09:46:18.431Z,215.64
2023-05-10T09:47:18.455Z,212.94
2023-05-10T09:48:18.445Z,212.26
2023-05-10T09:49:18.489Z,209.82
2023-05-10T09:50:18.532Z,212.61
2023-05-10T09:51:18.507Z,212.58
2023-05-10T09:52:18.524Z,208.91
2023-05-10T09:53:18.538Z,208.62
2023-05-10T09:54:18.965Z,207.64
2023-05-10T09:55:18.725Z,211.36
2023-05-10T09:56:26.043Z,217.38
2023-05-10T09:57:18.578Z,218.02
2023-05-10T09:58:18.553Z,218.04
2023-05-10T09:59:18.520Z,217.10
2023-05-10T10:00:18.519Z,220.44
2023-05-10T10:01:18.966Z,228.98
2023-05-10T10:02:19.433Z,221.66
2023-05-10T10:03:18.492Z,225.54
2023-05-10T10:04:18.419Z,221.46
2023-05-10T10:05:18.625Z,220.30
2023-05-10T10:06:29.125Z,221.15
2023-05-10T10:07:18.284Z,221.37
2023-05-10T10:08:18.436Z,219.43
2023-05-10T10:09:18.226Z,207.87
2023-05-10T10:10:18.447Z,198.70
2023-05-10T10:11:18.169Z,198.02
2023-05-10T10:12:18.151Z,197.63
2023-05-10T10:13:18.124Z,195.16
2023-05-10T10:14:18.079Z,194.97
2023-05-10T10:15:18.579Z,192.72
2023-05-10T10:16:18.526Z,194.73
2023-05-10T10:17:17.993Z,198.00
2023-05-10T10:18:18.000Z,197.68
2023-05-10T10:19:17.948Z,191.70
2023-05-10T10:20:18.206Z,191.66
2023-05-10T10:21:18.005Z,190.53
2023-05-10T10:22:17.860Z,188.65
2023-05-10T10:23:18.040Z,191.38
2023-05-10T10:24:17.817Z,190.19
2023-05-10T10:25:18.387Z,188.88
2023-05-10T10:26:17.962Z,188.92
2023-05-10T10:27:17.739Z,189.20
2023-05-10T10:28:17.715Z,189.83
2023-05-10T10:29:18.714Z,188.11
2023-05-10T10:30:17.752Z,206.94
2023-05-10T10:31:18.589Z,195.77
2023-05-10T10:32:17.791Z,194.19
2023-05-10T10:33:27.868Z,195.71
2023-05-10T10:34:17.771Z,196.06
2023-05-10T10:35:17.969Z,197.20
2023-05-10T10:36:18.115Z,198.45
2023-05-10T10:37:17.707Z,198.77
2023-05-10T10:38:17.646Z,201.52
2023-05-10T10:39:17.985Z,204.47
2023-05-10T10:40:17.597Z,202.83
2023-05-10T10:41:17.571Z,203.60
2023-05-10T10:42:17.533Z,208.48
2023-05-10T10:43:17.517Z,208.12
2023-05-10T10:44:18.130Z,211.25
2023-05-10T10:45:17.628Z,213.83
2023-05-10T10:46:17.446Z,215.42
2023-05-10T10:47:17.383Z,218.13
2023-05-10T10:48:17.347Z,217.41
2023-05-10T10:49:17.320Z,219.61
2023-05-10T10:50:17.351Z,217.34
2023-05-10T10:51:17.458Z,220.65
2023-05-10T10:52:17.213Z,227.26
2023-05-10T10:53:17.218Z,227.48
2023-05-10T10:54:17.123Z,226.64
2023-05-10T10:55:17.290Z,229.57
2023-05-10T10:56:17.048Z,229.60
2023-05-10T10:57:17.120Z,231.93
2023-05-10T10:58:16.968Z,234.64
2023-05-10T10:59:16.941Z,236.98
2023-05-10T11:00:16.890Z,235.85
2023-05-10T11:01:16.911Z,236.50
2023-05-10T11:02:16.809Z,239.99
2023-05-10T11:03:16.795Z,241.97
2023-05-10T11:04:17.122Z,244.34
2023-05-10T11:05:17.258Z,245.72
2023-05-10T11:06:16.685Z,244.86
2023-05-10T11:07:16.632Z,244.23
2023-05-10T11:08:16.591Z,249.66
2023-05-10T11:09:16.573Z,249.27
2023-05-10T11:10:17.118Z,246.73
2023-05-10T11:11:16.489Z,244.42
2023-05-10T11:12:16.439Z,237.79
2023-05-10T11:13:16.403Z,224.50
2023-05-10T11:14:16.359Z,235.36
2023-05-10T11:15:16.529Z,233.19
2023-05-10T11:16:16.317Z,221.55
2023-05-10T11:17:16.309Z,225.60
2023-05-10T11:18:16.257Z,225.79
2023-05-10T11:19:16.237Z,226.44
2023-05-10T11:20:16.611Z,228.15
2023-05-10T11:21:16.170Z,227.13
2023-05-10T11:22:16.138Z,230.22
2023-05-10T11:23:16.124Z,228.95
2023-05-10T11:24:16.109Z,229.73
2023-05-10T11:25:17.093Z,233.34
2023-05-10T11:26:16.051Z,232.77
2023-05-10T11:27:16.013Z,230.47
2023-05-10T11:28:16.004Z,233.80
2023-05-10T11:29:15.986Z,234.34
2023-05-10T11:30:16.292Z,236.57
2023-05-10T11:31:16.006Z,236.21
2023-05-10T11:32:15.917Z,237.83
2023-05-10T11:33:15.898Z,235.84
2023-05-10T11:34:15.884Z,238.67
2023-05-10T11:35:15.870Z,234.02
2023-05-10T11:36:16.464Z,237.63
2023-05-10T11:37:15.839Z,236.45
2023-05-10T11:38:15.827Z,235.46
2023-05-10T11:39:15.809Z,237.50
2023-05-10T11:40:16.088Z,236.20
2023-05-10T11:41:15.823Z,237.66
2023-05-10T11:42:15.773Z,235.86
2023-05-10T11:43:15.989Z,235.90
2023-05-10T11:44:15.742Z,239.06
2023-05-10T11:45:15.791Z,241.87
2023-05-10T11:46:15.790Z,241.99
2023-05-10T11:47:15.722Z,237.60
2023-05-10T11:48:15.831Z,238.38
2023-05-10T11:49:15.693Z,239.31
2023-05-10T11:50:16.005Z,236.16
2023-05-10T11:51:15.677Z,238.70
2023-05-10T11:52:15.668Z,243.65
2023-05-10T11:53:16.437Z,246.32
2023-05-10T11:54:15.631Z,225.59
2023-05-10T11:55:15.633Z,206.81
2023-05-10T11:56:15.621Z,203.33
2023-05-10T11:57:15.633Z,209.18
2023-05-10T11:58:15.608Z,204.54
2023-05-10T11:59:15.587Z,217.62
2023-05-10T12:00:15.796Z,220.23
2023-05-10T12:01:16.038Z,223.81
2023-05-10T12:02:15.778Z,229.33
2023-05-10T12:03:15.727Z,230.04
2023-05-10T12:04:15.700Z,223.64
2023-05-10T12:05:15.591Z,230.35
2023-05-10T12:06:15.541Z,229.44
2023-05-10T12:07:15.531Z,229.47
2023-05-10T12:08:15.503Z,227.72
2023-05-10T12:09:15.493Z,224.26
2023-05-10T12:10:16.012Z,228.74
2023-05-10T12:11:15.469Z,226.12
2023-05-10T12:12:15.459Z,225.93
2023-05-10T12:13:18.704Z,223.36
2023-05-10T12:14:15.421Z,223.76
2023-05-10T12:15:15.393Z,223.39
2023-05-10T12:16:15.516Z,222.67
2023-05-10T12:17:15.340Z,221.47
2023-05-10T12:18:15.356Z,219.99
2023-05-10T12:19:15.288Z,223.52
2023-05-10T12:20:15.683Z,220.16
2023-05-10T12:21:15.236Z,221.37
2023-05-10T12:22:15.498Z,217.21
2023-05-10T12:23:15.171Z,219.87
2023-05-10T12:24:15.141Z,217.33
2023-05-10T12:25:15.126Z,217.50
2023-05-10T12:26:15.085Z,210.28
2023-05-10T12:27:15.054Z,210.63
2023-05-10T12:28:15.029Z,209.19
2023-05-10T12:29:15.021Z,210.42
2023-05-10T12:30:15.108Z,206.02
2023-05-10T12:31:14.953Z,208.81
2023-05-10T12:32:15.000Z,207.80
2023-05-10T12:33:14.938Z,205.88
2023-05-10T12:34:14.890Z,206.85
2023-05-10T12:35:14.845Z,203.52
2023-05-10T12:36:18.048Z,203.99
2023-05-10T12:37:14.820Z,204.29
2023-05-10T12:38:14.757Z,204.41
2023-05-10T12:39:14.724Z,204.11
2023-05-10T12:40:14.862Z,206.88
2023-05-10T12:41:14.792Z,205.40
2023-05-10T12:42:14.634Z,204.70
2023-05-10T12:43:14.619Z,205.59